createdAt,value
2022-08-12T00:00:09.663Z,2.50
2022-08-12T00:02:56.098Z,2.60
2022-08-12T00:05:57.071Z,2.78
2022-08-12T00:08:48.429Z,2.60
2022-08-12T00:11:35.814Z,2.45
2022-08-12T00:14:21.728Z,2.45
2022-08-12T00:17:07.776Z,2.70
2022-08-12T00:19:53.712Z,2.13
2022-08-12T00:22:40.048Z,2.38
2022-08-12T00:26:19.020Z,2.60
2022-08-12T00:28:34.049Z,2.70
2022-08-12T00:31:20.452Z,2.63
2022-08-12T00:34:06.376Z,2.60
2022-08-12T00:36:53.107Z,2.88
2022-08-12T00:39:39.360Z,2.55
2022-08-12T00:42:10.717Z,2.53
2022-08-12T00:44:40.693Z,2.40
2022-08-12T00:47:24.623Z,2.55
2022-08-12T00:49:55.128Z,2.65
2022-08-12T00:52:24.455Z,2.85
2022-08-12T00:54:54.195Z,2.63
2022-08-12T00:57:23.402Z,2.70
2022-08-12T00:59:54.334Z,2.60
2022-08-12T01:02:24.684Z,2.50
2022-08-12T01:05:14.322Z,2.85
2022-08-12T01:08:00.707Z,2.70
2022-08-12T01:10:48.126Z,2.55
2022-08-12T01:13:19.442Z,2.77
2022-08-12T01:15:51.479Z,2.57
2022-08-12T01:18:21.061Z,2.50
2022-08-12T01:20:51.123Z,2.60
2022-08-12T01:23:28.146Z,2.33
2022-08-12T01:25:58.071Z,2.20
2022-08-12T01:28:28.859Z,2.50
2022-08-12T01:30:59.159Z,2.60
2022-08-12T01:33:29.558Z,2.53
2022-08-12T01:36:08.020Z,2.40
2022-08-12T01:38:38.733Z,2.53
2022-08-12T01:41:11.036Z,2.50
2022-08-12T01:43:39.614Z,2.47
2022-08-12T01:46:11.186Z,2.50
2022-08-12T01:48:46.066Z,2.60
2022-08-12T01:51:24.430Z,2.43
2022-08-12T01:54:11.289Z,2.40
2022-08-12T01:56:49.122Z,2.87
2022-08-12T01:59:36.237Z,2.80
2022-08-12T02:02:06.608Z,2.83
2022-08-12T02:04:58.008Z,2.63
2022-08-12T02:07:50.704Z,2.97
2022-08-12T02:10:50.774Z,2.97
2022-08-12T02:13:49.121Z,2.90
2022-08-12T02:16:25.468Z,2.67
2022-08-12T02:19:02.171Z,2.90
2022-08-12T02:21:35.847Z,2.97
2022-08-12T02:24:05.498Z,2.83
2022-08-12T02:26:37.674Z,3.00
2022-08-12T02:29:07.915Z,2.90
2022-08-12T02:31:36.759Z,2.93
2022-08-12T02:34:05.298Z,2.80
2022-08-12T02:36:34.169Z,3.23
2022-08-12T02:39:05.628Z,2.93
2022-08-12T02:41:34.422Z,2.90
2022-08-12T02:44:06.548Z,2.87
2022-08-12T02:46:37.189Z,2.70
2022-08-12T02:49:06.887Z,3.00
2022-08-12T02:51:40.590Z,3.20
2022-08-12T02:54:09.743Z,3.00
2022-08-12T02:56:40.616Z,2.80
2022-08-12T02:59:12.164Z,2.90
2022-08-12T03:01:48.239Z,2.90
2022-08-12T03:04:21.037Z,2.93
2022-08-12T03:06:50.643Z,3.00
2022-08-12T03:09:19.342Z,3.10
2022-08-12T03:11:49.861Z,3.30
2022-08-12T03:14:19.129Z,2.93
2022-08-12T03:16:51.922Z,3.10
2022-08-12T03:19:21.434Z,3.07
2022-08-12T03:21:55.398Z,3.40
2022-08-12T03:24:40.077Z,3.00
2022-08-12T03:27:10.003Z,3.60
2022-08-12T03:29:49.900Z,3.27
2022-08-12T03:32:45.478Z,3.27
2022-08-12T03:35:40.331Z,3.00
2022-08-12T03:38:05.355Z,3.30
2022-08-12T03:40:56.128Z,3.20
2022-08-12T03:43:46.219Z,2.90
2022-08-12T03:46:39.649Z,3.40
2022-08-12T03:49:27.052Z,3.87
2022-08-12T03:52:17.808Z,3.63
2022-08-12T03:55:03.856Z,3.97
2022-08-12T03:57:49.844Z,3.80
2022-08-12T04:00:24.744Z,3.53
2022-08-12T04:02:59.197Z,3.87
2022-08-12T04:05:55.124Z,4.17
2022-08-12T04:08:19.323Z,4.03
2022-08-12T04:11:05.565Z,3.90
2022-08-12T04:13:34.566Z,4.30
2022-08-12T04:16:06.617Z,4.23
2022-08-12T04:18:35.255Z,4.03
2022-08-12T04:21:10.062Z,3.90
2022-08-12T04:23:39.353Z,4.20
2022-08-12T04:26:07.880Z,4.60
2022-08-12T04:28:50.496Z,4.30
2022-08-12T04:31:18.949Z,4.17
2022-08-12T04:33:47.836Z,4.70
2022-08-12T04:36:17.588Z,4.33
2022-08-12T04:38:46.054Z,5.33
2022-08-12T04:41:14.441Z,4.93
2022-08-12T04:43:59.645Z,5.27
2022-08-12T04:46:34.487Z,5.00
2022-08-12T04:49:03.810Z,5.30
2022-08-12T04:51:34.114Z,5.20
2022-08-12T04:54:03.235Z,4.10
2022-08-12T04:56:35.220Z,5.07
2022-08-12T04:59:04.428Z,5.03
2022-08-12T05:01:32.855Z,5.87
2022-08-12T05:04:02.936Z,5.33
2022-08-12T05:06:32.874Z,5.60
2022-08-12T05:09:02.191Z,4.97
2022-08-12T05:11:39.830Z,4.80
2022-08-12T05:14:24.094Z,5.50
2022-08-12T05:16:53.219Z,4.70
2022-08-12T05:19:22.581Z,5.20
2022-08-12T05:21:52.630Z,4.80
2022-08-12T05:24:21.101Z,5.10
2022-08-12T05:26:49.495Z,5.13
2022-08-12T05:30:07.866Z,5.10
2022-08-12T05:32:06.651Z,5.00
2022-08-12T05:34:35.082Z,5.30
2022-08-12T05:37:04.962Z,4.77
2022-08-12T05:39:33.429Z,5.13
2022-08-12T05:42:01.842Z,4.53
2022-08-12T05:44:30.267Z,4.60
2022-08-12T05:46:58.774Z,4.53
2022-08-12T05:49:27.233Z,4.40
2022-08-12T05:51:55.627Z,4.60
2022-08-12T05:54:47.356Z,5.03
2022-08-12T05:57:14.083Z,4.20
2022-08-12T05:59:42.686Z,4.20
2022-08-12T06:02:13.689Z,4.27
2022-08-12T06:04:42.286Z,4.03
2022-08-12T06:08:00.127Z,4.43
2022-08-12T06:10:02.364Z,4.40
2022-08-12T06:12:30.963Z,3.90
2022-08-12T06:15:00.218Z,3.93
2022-08-12T06:17:31.086Z,3.43
2022-08-12T06:20:28.596Z,3.50
2022-08-12T06:22:50.883Z,3.42
2022-08-12T06:25:29.285Z,4.20
2022-08-12T06:28:06.455Z,3.40
2022-08-12T06:30:39.117Z,3.47
2022-08-12T06:33:22.191Z,3.60
2022-08-12T06:35:52.010Z,3.67
2022-08-12T06:38:25.995Z,3.40
2022-08-12T06:41:14.134Z,3.20
2022-08-12T06:44:07.016Z,3.65
2022-08-12T06:46:32.336Z,3.15
2022-08-12T06:49:01.297Z,3.85
2022-08-12T06:51:30.386Z,3.80
2022-08-12T06:53:58.941Z,3.85
2022-08-12T06:56:59.830Z,4.18
2022-08-12T06:59:17.215Z,3.72
2022-08-12T07:01:50.755Z,4.00
2022-08-12T07:04:37.485Z,4.20
2022-08-12T07:07:07.342Z,3.70
2022-08-12T07:09:58.056Z,3.95
2022-08-12T07:12:28.334Z,4.18
2022-08-12T07:14:57.062Z,3.88
2022-08-12T07:17:25.466Z,2.97
2022-08-12T07:19:58.019Z,3.22
2022-08-12T07:22:29.225Z,3.03
2022-08-12T07:25:11.544Z,3.42
2022-08-12T07:27:42.709Z,3.15
2022-08-12T07:30:11.883Z,3.10
2022-08-12T07:32:41.030Z,3.40
2022-08-12T07:35:09.962Z,3.97
2022-08-12T07:37:41.950Z,2.60
2022-08-12T07:40:11.804Z,2.75
2022-08-12T07:42:41.949Z,2.33
2022-08-12T07:45:11.086Z,2.70
2022-08-12T07:47:43.271Z,3.30
2022-08-12T07:50:12.230Z,2.80
2022-08-12T07:52:42.738Z,3.13
2022-08-12T07:55:12.179Z,2.78
2022-08-12T07:57:52.460Z,2.72
2022-08-12T08:00:21.117Z,2.63
2022-08-12T08:02:50.458Z,2.50
2022-08-12T08:05:19.538Z,2.88
2022-08-12T08:07:47.989Z,2.42
2022-08-12T08:10:16.795Z,2.80
2022-08-12T08:12:53.770Z,2.50
2022-08-12T08:15:38.639Z,2.40
2022-08-12T08:18:26.019Z,2.53
2022-08-12T08:20:55.456Z,2.50
2022-08-12T08:23:43.860Z,2.70
2022-08-12T08:26:16.508Z,2.47
2022-08-12T08:28:44.965Z,2.30
2022-08-12T08:31:15.056Z,2.53
2022-08-12T08:34:09.140Z,2.67
2022-08-12T08:36:31.895Z,2.67
2022-08-12T08:39:00.406Z,2.55
2022-08-12T08:42:19.113Z,2.55
2022-08-12T08:44:36.471Z,2.85
2022-08-12T08:47:06.541Z,2.80
2022-08-12T08:49:37.264Z,2.58
2022-08-12T08:52:07.016Z,2.42
2022-08-12T08:54:37.672Z,2.40
2022-08-12T08:57:08.210Z,2.22
2022-08-12T08:59:36.937Z,2.30
2022-08-12T09:02:07.571Z,2.20
2022-08-12T09:05:13.407Z,2.28
2022-08-12T09:07:51.786Z,2.33
2022-08-12T09:10:30.931Z,2.20
2022-08-12T09:13:29.265Z,2.20
2022-08-12T09:16:12.323Z,2.15
2022-08-12T09:18:43.570Z,2.00
2022-08-12T09:21:12.794Z,2.05
2022-08-12T09:26:31.236Z,2.10
2022-08-12T09:29:00.704Z,2.10
2022-08-12T09:32:04.292Z,2.47
2022-08-12T09:34:27.804Z,2.40
2022-08-12T09:37:19.420Z,2.30
2022-08-12T09:40:01.717Z,2.00
2022-08-12T09:43:16.039Z,2.30
2022-08-12T09:46:20.004Z,1.95
2022-08-12T09:48:36.552Z,2.00
2022-08-12T09:51:17.052Z,2.20
2022-08-12T09:54:10.667Z,1.98
2022-08-12T09:56:58.037Z,2.10
2022-08-12T10:00:17.899Z,1.95
2022-08-12T10:02:45.070Z,2.03
2022-08-12T10:05:05.198Z,2.00
2022-08-12T10:07:40.024Z,2.25
2022-08-12T10:10:22.928Z,2.17
2022-08-12T10:13:11.903Z,2.00
2022-08-12T10:16:00.617Z,2.08
2022-08-12T10:18:32.786Z,1.80
2022-08-12T10:21:07.323Z,2.15
2022-08-12T10:23:40.722Z,2.00
2022-08-12T10:26:37.378Z,2.30
2022-08-12T10:30:40.770Z,2.05
2022-08-12T10:32:43.800Z,2.20
2022-08-12T10:35:10.362Z,2.03
2022-08-12T10:38:36.043Z,2.13
2022-08-12T10:40:33.472Z,2.10
2022-08-12T10:43:20.609Z,1.90
2022-08-12T10:45:53.346Z,2.00
2022-08-12T10:48:34.153Z,2.10
2022-08-12T10:52:04.229Z,2.03
2022-08-12T10:54:00.505Z,1.90
2022-08-12T10:56:34.598Z,1.90
2022-08-12T10:59:03.911Z,2.10
2022-08-12T11:04:17.454Z,1.90
2022-08-12T11:04:41.374Z,2.00
2022-08-12T11:08:34.987Z,1.80
2022-08-12T11:10:01.622Z,1.80
2022-08-12T11:12:59.150Z,1.80
2022-08-12T11:16:02.937Z,1.85
2022-08-12T11:18:19.064Z,1.83
2022-08-12T11:20:49.099Z,1.70
2022-08-12T11:23:36.255Z,1.75
2022-08-12T11:26:07.240Z,1.73
2022-08-12T11:28:36.913Z,1.67
2022-08-12T11:31:12.402Z,1.80
2022-08-12T11:34:05.579Z,1.80
2022-08-12T11:36:31.511Z,1.75
2022-08-12T11:39:02.309Z,1.63
2022-08-12T11:41:33.484Z,1.95
2022-08-12T11:44:34.964Z,1.90
2022-08-12T11:46:54.082Z,2.00
2022-08-12T11:49:31.478Z,1.90
2022-08-12T11:52:02.263Z,1.95
2022-08-12T11:54:37.036Z,1.88
2022-08-12T11:58:09.432Z,1.83
2022-08-12T12:02:44.289Z,1.88
2022-08-12T12:05:15.741Z,1.90
2022-08-12T12:08:37.728Z,1.95
2022-08-12T12:10:38.930Z,2.00
2022-08-12T12:13:11.579Z,1.90
2022-08-12T12:15:51.773Z,1.98
2022-08-12T12:18:31.091Z,1.98
2022-08-12T12:21:01.004Z,2.08
2022-08-12T12:23:30.894Z,2.05
2022-08-12T12:26:08.230Z,2.00
2022-08-12T12:28:41.519Z,1.90
2022-08-12T12:32:06.952Z,2.10
2022-08-12T12:34:30.344Z,1.80
2022-08-12T12:37:00.783Z,2.10
2022-08-12T12:39:29.615Z,2.10
2022-08-12T12:42:42.073Z,1.70
2022-08-12T12:45:19.118Z,2.25
2022-08-12T12:48:01.370Z,1.90
2022-08-12T12:50:35.172Z,1.80
2022-08-12T12:53:04.633Z,2.10
2022-08-12T12:55:35.895Z,1.70
2022-08-12T12:58:05.575Z,2.10
2022-08-12T13:00:35.084Z,1.95
2022-08-12T13:03:03.461Z,1.80
2022-08-12T13:05:42.199Z,2.10
2022-08-12T13:08:28.299Z,2.22
2022-08-12T13:11:04.768Z,1.88
2022-08-12T13:14:06.901Z,1.90
2022-08-12T13:16:23.199Z,1.80
2022-08-12T13:18:52.446Z,1.70
2022-08-12T13:21:32.665Z,1.58
2022-08-12T13:24:02.638Z,1.90
2022-08-12T13:26:40.359Z,2.03
2022-08-12T13:29:11.359Z,2.00
2022-08-12T13:31:46.477Z,1.80
2022-08-12T13:34:34.875Z,1.70
2022-08-12T13:37:09.066Z,2.00
2022-08-12T13:39:38.932Z,2.00
2022-08-12T13:42:13.829Z,1.80
2022-08-12T13:44:43.222Z,2.15
2022-08-12T13:47:19.495Z,2.03
2022-08-12T13:49:54.467Z,1.92
2022-08-12T13:52:25.868Z,1.98
2022-08-12T13:54:56.620Z,1.80
2022-08-12T13:57:29.774Z,2.00
2022-08-12T14:00:00.501Z,2.00
2022-08-12T14:02:30.072Z,1.70
2022-08-12T14:05:03.039Z,1.73
2022-08-12T14:08:01.600Z,1.70
2022-08-12T14:10:37.710Z,1.90
2022-08-12T14:14:06.382Z,1.85
2022-08-12T14:16:16.893Z,1.85
2022-08-12T14:19:09.396Z,2.08
2022-08-12T14:22:01.263Z,1.80
2022-08-12T14:24:40.240Z,1.98
2022-08-12T14:27:10.349Z,2.05
2022-08-12T14:30:05.419Z,2.00
2022-08-12T14:32:34.949Z,1.90
2022-08-12T14:35:05.257Z,1.73
2022-08-12T14:37:55.280Z,1.85
2022-08-12T14:40:28.004Z,1.70
2022-08-12T14:42:57.668Z,1.70
2022-08-12T14:45:45.227Z,1.70
2022-08-12T14:48:16.721Z,2.17
2022-08-12T14:51:09.821Z,1.90
2022-08-12T14:59:56.372Z,1.77
2022-08-12T15:02:21.662Z,1.70
2022-08-12T15:04:56.127Z,1.80
2022-08-12T15:07:43.846Z,1.77
2022-08-12T15:10:31.237Z,1.80
2022-08-12T15:13:07.420Z,1.92
2022-08-12T15:15:45.578Z,1.80
2022-08-12T15:18:15.212Z,1.80
2022-08-12T15:20:44.155Z,1.80
2022-08-12T15:23:18.090Z,1.80
2022-08-12T15:25:59.649Z,1.80
2022-08-12T15:28:53.868Z,1.70
2022-08-12T15:31:28.332Z,1.60
2022-08-12T15:34:12.874Z,1.70
2022-08-12T15:36:55.083Z,1.80
2022-08-12T15:39:27.654Z,1.67
2022-08-12T15:42:01.888Z,1.80
2022-08-12T15:44:41.883Z,2.03
2022-08-12T15:47:16.349Z,2.03
2022-08-12T15:50:00.027Z,1.60
2022-08-12T15:52:30.599Z,1.67
2022-08-12T15:55:06.442Z,1.80
2022-08-12T15:57:42.445Z,1.70
2022-08-12T16:00:31.802Z,1.70
2022-08-12T16:03:05.319Z,1.80
2022-08-12T16:06:15.678Z,1.77
2022-08-12T16:08:27.700Z,1.90
2022-08-12T16:10:56.457Z,1.90
2022-08-12T16:13:34.319Z,1.83
2022-08-12T16:16:04.177Z,1.70
2022-08-12T16:18:58.786Z,1.80
2022-08-12T16:21:51.477Z,1.88
2022-08-12T16:24:18.786Z,1.80
2022-08-12T16:26:51.130Z,1.83
2022-08-12T16:29:24.534Z,1.75
2022-08-12T16:31:53.982Z,1.67
2022-08-12T16:34:25.712Z,1.70
2022-08-12T16:37:13.504Z,1.73
2022-08-12T16:39:57.377Z,1.67
2022-08-12T16:42:29.330Z,1.77
2022-08-12T16:45:02.282Z,1.95
2022-08-12T16:47:58.572Z,1.75
2022-08-12T16:50:30.885Z,1.70
2022-08-12T16:53:02.495Z,1.67
2022-08-12T16:55:42.416Z,1.42
2022-08-12T16:58:27.936Z,1.70
2022-08-12T17:01:02.472Z,1.55
2022-08-12T17:03:38.216Z,1.63
2022-08-12T17:06:19.734Z,1.70
2022-08-12T17:08:55.806Z,1.67
2022-08-12T17:11:25.050Z,1.65
2022-08-12T17:13:56.752Z,1.70
2022-08-12T17:16:25.177Z,1.70
2022-08-12T17:19:03.337Z,1.90
2022-08-12T17:21:41.876Z,1.85
2022-08-12T17:24:30.430Z,1.60
2022-08-12T17:27:09.579Z,1.70
2022-08-12T17:30:00.624Z,1.80
2022-08-12T17:32:33.237Z,2.30
2022-08-12T17:35:19.641Z,2.00
2022-08-12T17:37:51.071Z,1.70
2022-08-12T17:40:36.130Z,1.60
2022-08-12T17:43:55.762Z,2.95
2022-08-12T17:46:12.949Z,1.90
2022-08-12T17:48:55.182Z,1.60
2022-08-12T17:51:26.087Z,1.50
2022-08-12T17:54:05.646Z,1.70
2022-08-12T17:56:43.156Z,1.55
2022-08-12T17:59:13.112Z,1.75
2022-08-12T18:01:46.210Z,1.30
2022-08-12T18:04:23.382Z,1.65
2022-08-12T18:07:08.358Z,1.67
2022-08-12T18:09:40.349Z,1.23
2022-08-12T18:12:31.762Z,1.20
2022-08-12T18:15:09.078Z,1.00
2022-08-12T18:17:39.340Z,1.10
2022-08-12T18:20:15.348Z,1.10
2022-08-12T18:22:44.464Z,1.17
2022-08-12T18:26:15.852Z,1.20
2022-08-12T18:28:30.821Z,1.17
2022-08-12T18:31:03.498Z,1.25
2022-08-12T18:33:44.034Z,1.30
2022-08-12T18:36:22.366Z,1.20
2022-08-12T18:38:56.229Z,1.10
2022-08-12T18:41:30.670Z,1.30
2022-08-12T18:44:07.790Z,1.40
2022-08-12T18:46:42.843Z,1.20
2022-08-12T18:49:17.800Z,1.15
2022-08-12T18:51:55.034Z,1.20
2022-08-12T18:54:25.665Z,1.10
2022-08-12T18:56:56.416Z,1.10
2022-08-12T19:00:00.241Z,1.10
2022-08-12T19:02:22.512Z,1.25
2022-08-12T19:04:54.752Z,1.13
2022-08-12T19:07:29.903Z,1.10
2022-08-12T19:10:14.778Z,1.10
2022-08-12T19:13:02.541Z,1.10
2022-08-12T19:15:43.190Z,1.40
2022-08-12T19:18:12.462Z,1.20
2022-08-12T19:20:42.085Z,1.15
2022-08-12T19:23:21.008Z,1.38
2022-08-12T19:26:00.864Z,1.10
2022-08-12T19:28:36.225Z,1.20
2022-08-12T19:31:45.146Z,1.10
2022-08-12T19:37:17.198Z,1.23
2022-08-12T19:40:09.152Z,1.08
2022-08-12T19:42:40.090Z,1.30
2022-08-12T19:45:14.826Z,0.90
2022-08-12T19:47:46.070Z,1.15
2022-08-12T19:50:19.917Z,1.00
2022-08-12T19:52:53.030Z,1.20
2022-08-12T19:55:24.163Z,1.10
2022-08-12T19:58:03.278Z,1.00
2022-08-12T20:00:35.683Z,1.13
2022-08-12T20:03:05.381Z,1.30
2022-08-12T20:06:05.803Z,1.10
2022-08-12T20:08:38.076Z,1.10
2022-08-12T20:12:12.405Z,1.17
2022-08-12T20:14:07.263Z,1.20
2022-08-12T20:19:53.248Z,1.10
2022-08-12T20:22:23.486Z,1.20
2022-08-12T20:24:56.544Z,1.48
2022-08-12T20:27:29.582Z,1.20
2022-08-12T20:30:15.760Z,1.20
2022-08-12T20:32:55.252Z,1.20
2022-08-12T20:36:05.788Z,1.33
2022-08-12T20:38:26.671Z,1.20
2022-08-12T20:40:56.086Z,1.20
2022-08-12T20:43:28.372Z,1.33
2022-08-12T20:46:00.312Z,1.40
2022-08-12T20:48:30.100Z,1.27
2022-08-12T20:51:04.603Z,1.25
2022-08-12T20:53:57.628Z,1.40
2022-08-12T20:56:30.515Z,1.52
2022-08-12T20:59:01.271Z,1.30
2022-08-12T21:01:46.198Z,1.30
2022-08-12T21:04:36.895Z,1.00
2022-08-12T21:07:09.089Z,1.17
2022-08-12T21:09:42.229Z,1.38
2022-08-12T21:12:28.456Z,1.35
2022-08-12T21:15:18.077Z,1.60
2022-08-12T21:18:00.619Z,1.10
2022-08-12T21:20:39.777Z,1.30
2022-08-12T21:23:08.908Z,1.30
2022-08-12T21:25:45.050Z,1.20
2022-08-12T21:28:14.573Z,1.45
2022-08-12T21:31:10.979Z,1.10
2022-08-12T21:34:06.337Z,1.30
2022-08-12T21:36:35.024Z,1.25
2022-08-12T21:39:18.192Z,1.45
2022-08-12T21:41:50.284Z,1.20
2022-08-12T21:44:24.513Z,1.23
2022-08-12T21:47:20.178Z,1.35
2022-08-12T21:50:04.230Z,1.50
2022-08-12T21:52:40.490Z,1.48
2022-08-12T21:55:19.312Z,1.40
2022-08-12T21:57:53.788Z,1.20
2022-08-12T22:00:31.744Z,1.30
2022-08-12T22:04:02.122Z,1.33
2022-08-12T22:06:30.519Z,1.40
2022-08-12T22:09:08.156Z,1.60
2022-08-12T22:11:41.426Z,1.45
2022-08-12T22:14:21.690Z,1.42
2022-08-12T22:16:53.091Z,1.42
2022-08-12T22:19:23.001Z,1.50
2022-08-12T22:21:53.721Z,1.40
2022-08-12T22:24:26.792Z,1.50
2022-08-12T22:26:57.244Z,1.30
2022-08-12T22:29:43.280Z,1.48
2022-08-12T22:32:13.243Z,1.17
2022-08-12T22:34:44.741Z,1.30
2022-08-12T22:37:19.934Z,1.35
2022-08-12T22:39:50.289Z,1.40
2022-08-12T22:42:38.151Z,1.58
2022-08-12T22:45:25.198Z,1.33
2022-08-12T22:47:57.142Z,1.30
2022-08-12T22:50:29.708Z,1.25
2022-08-12T22:53:16.111Z,1.60
2022-08-12T22:55:58.990Z,1.60
2022-08-12T22:58:32.046Z,1.27
2022-08-12T23:01:02.426Z,1.60
2022-08-12T23:03:48.423Z,1.40
2022-08-12T23:06:20.023Z,1.67
2022-08-12T23:08:48.852Z,1.40
2022-08-12T23:11:23.822Z,1.40
2022-08-12T23:13:56.934Z,1.30
2022-08-12T23:16:31.043Z,1.77
2022-08-12T23:19:10.273Z,1.45
2022-08-12T23:22:06.278Z,1.48
2022-08-12T23:24:38.417Z,1.50
2022-08-12T23:27:44.489Z,1.50
2022-08-12T23:30:19.249Z,1.50
2022-08-12T23:32:54.469Z,1.57
2022-08-12T23:35:23.374Z,1.60
2022-08-12T23:38:11.734Z,1.70
2022-08-12T23:40:59.779Z,1.53
2022-08-12T23:43:40.409Z,1.57
2022-08-12T23:46:10.219Z,1.70
2022-08-12T23:48:38.855Z,1.50
2022-08-12T23:51:23.421Z,1.67
2022-08-12T23:53:55.019Z,1.60
2022-08-12T23:56:24.140Z,1.80
2022-08-12T23:58:55.316Z,1.60
